createdAt,value
2018-06-17T00:00:58.901Z,52.70
2018-06-17T00:03:26.669Z,52.30
2018-06-17T00:05:54.453Z,52.60
2018-06-17T00:08:22.257Z,52.30
2018-06-17T00:10:50.021Z,52.40
2018-06-17T00:13:17.757Z,52.30
2018-06-17T00:15:45.529Z,52.30
2018-06-17T00:18:13.285Z,52.60
2018-06-17T00:20:41.077Z,52.70
2018-06-17T00:23:08.881Z,52.60
2018-06-17T00:25:36.625Z,52.80
2018-06-17T00:28:04.388Z,52.90
2018-06-17T00:30:32.148Z,52.60
2018-06-17T00:32:59.921Z,52.50
2018-06-17T00:35:27.665Z,52.20
2018-06-17T00:37:55.453Z,51.80
2018-06-17T00:40:23.189Z,52.50
2018-06-17T00:42:50.956Z,52.70
2018-06-17T00:45:18.737Z,52.70
2018-06-17T00:47:46.453Z,52.90
2018-06-17T00:50:14.200Z,52.90
2018-06-17T00:52:42.001Z,53.20
2018-06-17T00:55:09.744Z,52.80
2018-06-17T00:57:43.972Z,52.80
2018-06-17T01:00:11.729Z,52.80
2018-06-17T01:02:39.497Z,52.80
2018-06-17T01:05:07.337Z,53.40
2018-06-17T01:07:35.090Z,53.80
2018-06-17T01:10:02.909Z,54.00
2018-06-17T01:12:30.712Z,53.70
2018-06-17T01:14:58.462Z,53.40
2018-06-17T01:17:26.322Z,53.80
2018-06-17T01:19:54.189Z,54.00
2018-06-17T01:22:21.912Z,54.50
2018-06-17T01:24:49.667Z,54.00
2018-06-17T01:27:17.437Z,53.90
2018-06-17T01:29:45.185Z,53.40
2018-06-17T01:32:12.934Z,53.40
2018-06-17T01:34:40.706Z,53.70
2018-06-17T01:37:08.460Z,53.70
2018-06-17T01:39:36.206Z,53.80
2018-06-17T01:42:03.973Z,53.60
2018-06-17T01:44:31.739Z,53.50
2018-06-17T01:46:59.540Z,53.60
2018-06-17T01:49:27.331Z,53.60
2018-06-17T01:51:55.120Z,53.40
2018-06-17T01:54:22.884Z,53.60
2018-06-17T01:56:50.677Z,54.30
2018-06-17T01:59:18.463Z,54.60
2018-06-17T02:01:46.213Z,55.00
2018-06-17T02:04:19.449Z,54.80
2018-06-17T02:06:52.776Z,54.50
2018-06-17T02:09:25.996Z,54.30
2018-06-17T02:11:59.193Z,54.30
2018-06-17T02:14:32.493Z,54.20
2018-06-17T02:17:00.237Z,54.40
2018-06-17T02:19:28.009Z,54.60
2018-06-17T02:21:55.768Z,54.50
2018-06-17T02:24:23.544Z,54.30
2018-06-17T02:26:51.316Z,54.30
2018-06-17T02:29:19.089Z,54.50
2018-06-17T02:31:47.609Z,54.70
2018-06-17T02:34:15.333Z,54.80
2018-06-17T02:36:43.223Z,54.90
2018-06-17T02:39:10.996Z,55.00
2018-06-17T02:41:38.774Z,55.30
2018-06-17T02:44:06.593Z,55.50
2018-06-17T02:46:39.966Z,55.70
2018-06-17T02:49:13.965Z,56.00
2018-06-17T02:51:47.166Z,55.70
2018-06-17T02:54:20.517Z,56.60
2018-06-17T02:56:48.303Z,56.10
2018-06-17T02:59:16.201Z,56.60
2018-06-17T03:01:43.955Z,56.80
2018-06-17T03:04:11.796Z,57.40
2018-06-17T03:06:39.657Z,57.90
2018-06-17T03:09:08.736Z,58.20
2018-06-17T03:11:36.717Z,58.40
2018-06-17T03:14:05.492Z,58.40
2018-06-17T03:16:33.238Z,58.40
2018-06-17T03:19:00.996Z,58.50
2018-06-17T03:21:28.805Z,58.60
2018-06-17T03:23:56.552Z,58.80
2018-06-17T03:26:29.740Z,58.80
2018-06-17T03:29:02.919Z,58.80
2018-06-17T03:31:36.101Z,59.10
2018-06-17T03:34:03.858Z,59.20
2018-06-17T03:36:31.614Z,59.20
2018-06-17T03:38:59.385Z,59.40
2018-06-17T03:41:27.161Z,60.00
2018-06-17T03:43:54.929Z,59.70
2018-06-17T03:46:22.661Z,59.60
2018-06-17T03:48:50.410Z,60.10
2018-06-17T03:51:18.194Z,60.10
2018-06-17T03:53:45.941Z,60.00
2018-06-17T03:56:13.709Z,60.60
2018-06-17T03:58:41.473Z,60.80
2018-06-17T04:01:09.265Z,61.10
2018-06-17T04:03:37.033Z,61.10
2018-06-17T04:06:04.800Z,61.40
2018-06-17T04:08:32.565Z,61.60
2018-06-17T04:11:00.387Z,61.80
2018-06-17T04:15:55.868Z,62.50
2018-06-17T04:18:23.580Z,62.40
2018-06-17T04:20:51.352Z,62.30
2018-06-17T04:23:19.624Z,62.50
2018-06-17T04:25:47.441Z,62.30
2018-06-17T04:28:15.188Z,61.40
2018-06-17T04:30:42.974Z,61.70
2018-06-17T04:33:10.737Z,61.80
2018-06-17T04:35:38.502Z,61.90
2018-06-17T04:38:06.263Z,61.80
2018-06-17T04:40:34.011Z,62.10
2018-06-17T04:43:01.788Z,62.60
2018-06-17T04:45:29.565Z,62.10
2018-06-17T04:47:57.333Z,61.30
2018-06-17T04:50:25.081Z,61.50
2018-06-17T04:52:52.858Z,61.10
2018-06-17T04:55:20.652Z,61.70
2018-06-17T04:57:48.433Z,61.50
2018-06-17T05:00:16.216Z,61.20
2018-06-17T05:02:43.947Z,61.30
2018-06-17T05:05:11.764Z,61.20
2018-06-17T05:07:39.576Z,60.70
2018-06-17T05:10:07.340Z,60.10
2018-06-17T05:12:35.123Z,60.10
2018-06-17T05:17:30.770Z,59.40
2018-06-17T05:19:58.557Z,59.60
2018-06-17T05:22:26.318Z,59.60
2018-06-17T05:24:54.073Z,59.40
2018-06-17T05:27:21.841Z,59.40
2018-06-17T05:29:49.608Z,59.10
2018-06-17T05:32:17.433Z,58.90
2018-06-17T05:34:45.189Z,58.50
2018-06-17T05:37:12.949Z,58.30
2018-06-17T05:39:40.732Z,58.70
2018-06-17T05:42:08.500Z,58.70
2018-06-17T05:44:36.260Z,58.50
2018-06-17T05:47:04.155Z,58.80
2018-06-17T05:49:31.880Z,58.70
2018-06-17T05:51:59.664Z,58.80
2018-06-17T05:56:55.033Z,57.60
2018-06-17T05:59:22.845Z,57.20
2018-06-17T06:01:50.603Z,56.70
2018-06-17T06:04:18.373Z,56.30
2018-06-17T06:06:46.404Z,56.10
2018-06-17T06:09:14.136Z,55.00
2018-06-17T06:11:42.829Z,54.70
2018-06-17T06:14:10.569Z,55.50
2018-06-17T06:16:38.352Z,54.70
2018-06-17T06:19:06.084Z,53.70
2018-06-17T06:21:33.928Z,52.70
2018-06-17T06:24:01.858Z,51.60
2018-06-17T06:26:29.597Z,51.20
2018-06-17T06:31:24.970Z,49.80
2018-06-17T06:33:52.833Z,47.80
2018-06-17T06:36:20.625Z,47.90
2018-06-17T06:38:48.396Z,48.10
2018-06-17T06:41:16.193Z,47.90
2018-06-17T06:46:11.665Z,48.30
2018-06-17T06:48:39.469Z,49.50
2018-06-17T06:56:02.682Z,49.60
2018-06-17T06:58:30.428Z,50.20
2018-06-17T07:00:58.188Z,50.80
2018-06-17T07:03:37.165Z,50.50
2018-06-17T07:06:16.093Z,50.60
2018-06-17T07:08:55.071Z,49.70
2018-06-17T07:13:50.462Z,48.60
2018-06-17T07:16:29.514Z,47.90
2018-06-17T07:18:57.272Z,48.10
2018-06-17T07:21:25.033Z,47.10
2018-06-17T07:23:52.781Z,47.70
2018-06-17T07:26:36.001Z,47.30
2018-06-17T07:29:14.977Z,47.00
2018-06-17T07:31:42.752Z,46.40
2018-06-17T07:34:11.255Z,45.90
2018-06-17T07:36:39.313Z,44.60
2018-06-17T07:39:35.085Z,43.70
2018-06-17T07:42:02.895Z,43.90
2018-06-17T07:44:30.634Z,44.10
2018-06-17T07:46:58.381Z,43.40
2018-06-17T07:49:38.626Z,42.70
2018-06-17T07:52:18.271Z,42.20
2018-06-17T07:54:46.370Z,43.20
2018-06-17T07:57:15.313Z,44.00
2018-06-17T07:59:43.065Z,44.90
2018-06-17T08:02:11.372Z,45.10
2018-06-17T08:04:39.119Z,45.70
2018-06-17T08:07:06.968Z,46.20
2018-06-17T08:09:34.741Z,45.20
2018-06-17T08:12:02.653Z,45.60
2018-06-17T08:14:30.400Z,46.60
2018-06-17T08:16:58.236Z,46.20
2018-06-17T08:19:27.096Z,47.30
2018-06-17T08:21:55.552Z,46.60
2018-06-17T08:24:23.433Z,45.20
2018-06-17T08:26:51.230Z,44.80
2018-06-17T08:29:19.024Z,45.90
2018-06-17T08:31:46.753Z,45.70
2018-06-17T08:34:14.508Z,45.40
2018-06-17T08:36:42.291Z,46.00
2018-06-17T08:39:12.356Z,43.40
2018-06-17T08:41:40.360Z,43.80
2018-06-17T08:44:08.268Z,44.70
2018-06-17T08:46:36.057Z,42.30
2018-06-17T08:49:04.040Z,42.80
2018-06-17T08:51:31.803Z,40.40
2018-06-17T08:53:59.544Z,38.80
2018-06-17T08:56:27.969Z,39.00
2018-06-17T08:58:55.998Z,37.70
2018-06-17T09:01:23.732Z,37.60
2018-06-17T09:03:51.502Z,39.00
2018-06-17T09:06:19.217Z,39.70
2018-06-17T09:08:46.964Z,40.00
2018-06-17T09:11:14.769Z,38.10
2018-06-17T09:13:42.552Z,38.30
2018-06-17T09:16:10.297Z,39.60
2018-06-17T09:18:38.146Z,40.40
2018-06-17T09:21:06.021Z,41.70
2018-06-17T09:23:34.100Z,40.10
2018-06-17T09:26:01.848Z,37.50
2018-06-17T09:28:29.584Z,38.50
2018-06-17T09:30:57.393Z,37.50
2018-06-17T09:33:25.208Z,36.80
2018-06-17T09:35:53.623Z,36.00
2018-06-17T09:38:21.734Z,36.50
2018-06-17T09:40:49.515Z,37.30
2018-06-17T09:43:17.278Z,35.90
2018-06-17T09:45:45.024Z,35.90
2018-06-17T09:48:12.802Z,36.70
2018-06-17T09:50:40.536Z,36.10
2018-06-17T09:53:08.477Z,37.70
2018-06-17T09:55:36.564Z,37.70
2018-06-17T09:58:05.025Z,36.20
2018-06-17T10:02:12.353Z,37.00
2018-06-17T10:04:40.110Z,37.30
2018-06-17T10:07:08.196Z,36.40
2018-06-17T10:12:08.092Z,33.20
2018-06-17T10:14:35.917Z,34.20
2018-06-17T10:17:06.773Z,32.90
2018-06-17T10:19:34.546Z,34.70
2018-06-17T10:22:02.320Z,34.10
2018-06-17T10:24:30.137Z,36.00
2018-06-17T10:26:57.877Z,34.40
2018-06-17T10:29:25.671Z,34.30
2018-06-17T10:31:53.538Z,34.30
2018-06-17T10:34:21.277Z,35.10
2018-06-17T10:36:49.009Z,34.10
2018-06-17T10:39:16.733Z,35.00
2018-06-17T10:41:44.487Z,33.50
2018-06-17T10:44:12.237Z,33.50
2018-06-17T10:46:40.001Z,34.10
2018-06-17T10:49:07.748Z,32.60
2018-06-17T10:51:35.517Z,33.30
2018-06-17T10:54:03.311Z,33.60
2018-06-17T10:56:31.058Z,33.70
2018-06-17T10:58:58.864Z,33.70
2018-06-17T11:01:26.621Z,33.80
2018-06-17T11:03:54.359Z,33.00
2018-06-17T11:06:22.145Z,32.50
2018-06-17T11:08:49.924Z,34.40
2018-06-17T11:11:17.681Z,34.10
2018-06-17T11:13:45.520Z,35.30
2018-06-17T11:18:40.890Z,36.70
2018-06-17T11:21:08.665Z,37.50
2018-06-17T11:23:36.760Z,34.10
2018-06-17T11:26:04.535Z,35.90
2018-06-17T11:28:32.309Z,35.00
2018-06-17T11:31:00.105Z,34.30
2018-06-17T11:33:27.841Z,35.00
2018-06-17T11:35:55.606Z,33.40
2018-06-17T11:38:23.412Z,33.00
2018-06-17T11:40:51.551Z,33.80
2018-06-17T11:54:24.841Z,32.10
2018-06-17T11:56:52.597Z,30.90
2018-06-17T11:59:20.391Z,33.20
2018-06-17T12:01:48.213Z,34.10
2018-06-17T12:04:16.001Z,34.10
2018-06-17T12:06:43.796Z,34.30
2018-06-17T12:09:11.805Z,33.70
2018-06-17T12:11:40.009Z,34.40
2018-06-17T12:14:07.809Z,34.10
2018-06-17T12:19:28.954Z,34.10
2018-06-17T12:21:56.737Z,35.20
2018-06-17T12:24:24.884Z,35.20
2018-06-17T12:26:52.730Z,35.20
2018-06-17T12:31:54.936Z,34.50
2018-06-17T12:34:43.136Z,35.50
2018-06-17T13:03:06.321Z,36.40
2018-06-17T13:05:34.136Z,36.60
2018-06-17T13:08:02.184Z,37.00
2018-06-17T13:10:29.952Z,38.20
2018-06-17T13:12:57.689Z,37.10
2018-06-17T13:15:25.545Z,37.70
2018-06-17T13:17:53.325Z,36.60
2018-06-17T13:20:21.072Z,35.60
2018-06-17T13:23:11.672Z,36.20
2018-06-17T13:25:39.725Z,35.60
2018-06-17T13:31:00.775Z,35.20
2018-06-17T13:33:28.544Z,34.50
2018-06-17T13:38:29.132Z,35.40
2018-06-17T13:40:57.041Z,34.50
2018-06-17T13:43:24.843Z,35.30
2018-06-17T13:45:52.597Z,35.90
2018-06-17T13:48:20.376Z,36.50
2018-06-17T13:50:48.269Z,36.80
2018-06-17T13:53:16.101Z,37.20
2018-06-17T13:55:43.857Z,37.70
2018-06-17T13:58:11.620Z,38.30
2018-06-17T14:00:39.401Z,38.60
2018-06-17T14:06:00.288Z,38.30
2018-06-17T14:08:28.033Z,39.00
2018-06-17T14:10:55.980Z,39.40
2018-06-17T14:15:51.485Z,39.20
2018-06-17T14:18:19.253Z,39.70
2018-06-17T14:20:47.061Z,40.50
2018-06-17T14:23:26.740Z,42.50
2018-06-17T14:25:54.578Z,43.70
2018-06-17T14:28:22.376Z,45.60
2018-06-17T14:30:50.140Z,46.50
2018-06-17T14:33:17.913Z,47.00
2018-06-17T14:35:45.705Z,47.10
2018-06-17T14:38:13.497Z,47.20
2018-06-17T17:35:59.024Z,52.60
2018-06-17T17:38:32.786Z,52.50
2018-06-17T17:41:03.200Z,52.20
2018-06-17T17:43:31.446Z,52.30
2018-06-17T17:46:05.082Z,52.60
2018-06-17T17:48:33.205Z,52.70
2018-06-17T17:51:01.908Z,52.80
2018-06-17T17:53:30.057Z,52.70
2018-06-17T17:55:58.376Z,53.00
2018-06-17T17:58:26.561Z,53.80
2018-06-17T18:00:54.771Z,53.50
2018-06-17T18:03:22.886Z,53.80
2018-06-17T18:05:51.029Z,54.20
2018-06-17T18:08:19.282Z,54.60
2018-06-17T18:10:47.548Z,55.00
2018-06-17T18:13:15.945Z,55.30
2018-06-17T18:15:44.139Z,55.40
2018-06-17T18:18:12.278Z,55.80
2018-06-17T18:20:40.494Z,55.90
2018-06-17T18:23:08.584Z,55.40
2018-06-17T18:28:15.959Z,55.30
2018-06-17T18:30:49.462Z,55.20
2018-06-17T18:33:23.344Z,54.90
2018-06-17T18:35:57.289Z,55.10
2018-06-17T18:38:25.520Z,55.00
2018-06-17T18:40:54.765Z,58.10
2018-06-17T18:43:23.056Z,58.60
2018-06-17T18:45:51.630Z,59.80
2018-06-17T18:48:20.295Z,59.60
2018-06-17T18:50:48.504Z,60.50
2018-06-17T18:53:21.380Z,62.10
2018-06-17T18:55:49.626Z,63.80
2018-06-17T18:58:18.246Z,64.50
2018-06-17T19:00:46.451Z,67.40
2018-06-17T19:03:14.691Z,68.90
2018-06-17T19:05:43.222Z,70.00
2018-06-17T19:08:19.086Z,70.20
2018-06-17T19:11:05.670Z,70.40
2018-06-17T19:16:34.024Z,69.80
2018-06-17T19:21:55.659Z,69.30
2018-06-17T19:27:17.269Z,69.80
2018-06-17T19:29:45.785Z,69.70
2018-06-17T19:32:14.285Z,69.80
2018-06-17T19:34:42.571Z,71.60
2018-06-17T19:37:10.996Z,71.70
2018-06-17T19:39:39.663Z,70.50
2018-06-17T19:42:08.486Z,70.20
2018-06-17T19:44:36.857Z,70.60
2018-06-17T19:47:05.395Z,72.00
2018-06-17T19:49:39.162Z,72.70
2018-06-17T19:52:13.067Z,73.20
2018-06-17T19:54:46.823Z,73.90
2018-06-17T20:00:13.804Z,74.10
2018-06-17T20:05:54.236Z,74.00
2018-06-17T20:08:22.996Z,73.90
2018-06-17T20:10:56.903Z,75.40
2018-06-17T20:13:24.856Z,75.00
2018-06-17T20:18:46.342Z,75.80
2018-06-17T20:21:16.892Z,75.80
2018-06-17T20:23:56.955Z,76.20
2018-06-17T20:26:26.444Z,76.90
2018-06-17T20:28:55.266Z,76.00
2018-06-17T20:45:47.331Z,75.00
2018-06-17T20:48:15.691Z,75.60
2018-06-17T20:50:44.171Z,75.90
2018-06-17T20:53:12.991Z,76.40
2018-06-17T20:55:41.486Z,75.90
2018-06-17T20:58:09.874Z,76.90
2018-06-17T21:00:38.088Z,75.90
2018-06-17T21:03:05.907Z,76.10
2018-06-17T21:05:33.745Z,77.40
2018-06-17T21:08:01.501Z,76.90
2018-06-17T21:10:29.241Z,76.30
2018-06-17T21:12:57.105Z,76.90
2018-06-17T21:15:24.865Z,76.90
2018-06-17T21:17:52.604Z,76.90
2018-06-17T21:20:25.994Z,77.40
2018-06-17T21:22:59.185Z,77.10
2018-06-17T21:25:32.484Z,77.30
2018-06-17T21:28:01.221Z,77.70
2018-06-17T21:30:29.069Z,78.10
2018-06-17T21:32:56.837Z,78.50
2018-06-17T21:35:24.650Z,78.80
2018-06-17T21:37:52.377Z,78.80
2018-06-17T21:40:20.201Z,78.90
2018-06-17T21:42:48.298Z,78.60
2018-06-17T21:45:16.595Z,78.30
2018-06-17T21:47:44.790Z,78.30
2018-06-17T21:50:21.354Z,78.10
2018-06-17T21:52:49.299Z,79.30
2018-06-17T21:55:18.624Z,78.90
2018-06-17T21:57:52.536Z,79.30
2018-06-17T22:00:20.369Z,78.60
2018-06-17T22:02:48.183Z,79.60
2018-06-17T22:05:16.045Z,78.90
2018-06-17T22:22:02.691Z,79.70
2018-06-17T22:24:30.508Z,79.80
2018-06-17T22:26:58.322Z,79.80
2018-06-17T22:29:26.104Z,80.70
2018-06-17T22:31:53.913Z,80.00
2018-06-17T22:34:21.764Z,79.70
2018-06-17T22:36:49.643Z,78.90
2018-06-17T22:41:45.211Z,79.50
2018-06-17T22:44:12.983Z,80.00
2018-06-17T22:46:41.077Z,80.20
2018-06-17T22:49:08.851Z,80.10
2018-06-17T22:51:36.670Z,80.40
2018-06-17T22:55:14.009Z,80.00
2018-06-17T22:57:47.250Z,80.00
2018-06-17T23:00:20.696Z,80.20
2018-06-17T23:02:54.113Z,80.20
2018-06-17T23:05:27.330Z,80.30
2018-06-17T23:08:00.742Z,80.30
2018-06-17T23:10:28.509Z,80.70
2018-06-17T23:12:56.261Z,80.80
2018-06-17T23:15:24.174Z,80.90
2018-06-17T23:17:51.948Z,81.00
2018-06-17T23:20:19.708Z,80.60
2018-06-17T23:22:47.473Z,80.50
2018-06-17T23:25:15.240Z,80.40
2018-06-17T23:27:43.024Z,80.50
2018-06-17T23:30:10.769Z,80.40
2018-06-17T23:32:38.585Z,80.50
2018-06-17T23:35:06.453Z,80.10
2018-06-17T23:37:34.249Z,80.30
2018-06-17T23:40:02.021Z,80.40
2018-06-17T23:42:29.801Z,79.90
2018-06-17T23:44:57.583Z,79.80
2018-06-17T23:47:30.984Z,80.10
2018-06-17T23:50:04.222Z,80.10
2018-06-17T23:52:37.625Z,79.90
2018-06-17T23:55:10.865Z,80.20
2018-06-17T23:57:38.676Z,80.30
